Aeroporto :
LOGIN :

Iscrizione | Disclaimer

   EN    FR    IT 

 










Sommario :    VFR   VFR Marginale   IFR   IFR Intensivo   IFR Molto Intensivo
Visibilità : 
Base nubi : 
>= 8 km
>= 3000ft
5 / 8 km
1000 / 3000 ft
1500m / 5 km
500 / 1000 ft
800 / 1500m
200 / 500 ft
< 800m
< 200 ft
Simboli :   Temporali  Nebbia  Neve Forte  Precipitazioni Forti  Vento > 20 kt
SIGMETs :   Varie  Temporali  Ghiacco  Turbolenza  Onda orograficha  Ceneri Vulcaniche






- Altitudine del aeroporto : 286 ft
- Codice IATA : FFD


EGVA - RAF Fairford

ULTIMO METAR :
  • 242156Z AUTO 02004KT 9999 CLR 07/06 A2935 RMK AO2 SLP943 T00710057 $

METARs OBSOLETI :
  • 242056Z AUTO 02004KT 9999 CLR 08/06 A2933 RMK AO2 SLP936 T00750063 52011 $
  • 241956Z AUTO 04003KT 9999 CLR 08/06 A2932 RMK AO2 SLP933 T00780063 $

TAF AMD TAF EGVA
Valido dal 24 a 16 ore il 25 a 20 ore UTC


241625Z 2416/2520 22009KT 9999 BKN040 QNH2929INS
TEMPO 2416/2419 8000 -SHRA OVC040
BECMG 2418/2419 VRB04KT 9999 SCT040 QNH2930INS
BECMG 2503/2504 32012G20KT 9999 SCT005 BKN008 OVC020 620502 QNH2941INS
BECMG 2508/2509 32020G30KT 9999 SCT030 510003 QNH2962INS
TEMPO 2511/2516 32025G35KT
BECMG 2515/2516 32012G18KT 9999 SCT030 QNH2972INS TX13/2416Z TN06/2502Z LAST NO AMDS AFT 2416 NEXT 2506



MetMap, La meteo Aeronautica in un colpo d'occhio ! - Copyright ORBIFLY Dicembre 2007 - Disclaimer

ORBIFLY MET'MAP TEAM :

Programmazione e sviluppo : Alexandra Zaïnal
Concezione : Baudouin d'Aumeries
Aiuto per la programmazione : Marc-Olivier Méhu
Supporto tecnico e logistico : Manuel Goepfert
Aiuto per la traduzione : Arnaldo La Scala

Contatto : metmap@orbifly.com




FONTI E CREDITI :

   NOAA